createdAt,value
2022-11-21T00:01:37.838Z,0.20
2022-11-21T00:04:07.659Z,0.10
2022-11-21T00:06:36.461Z,0.20
2022-11-21T00:09:05.299Z,0.20
2022-11-21T00:11:33.569Z,0.20
2022-11-21T00:14:01.768Z,0.20
2022-11-21T00:16:31.500Z,0.20
2022-11-21T00:19:00.209Z,0.30
2022-11-21T00:21:28.710Z,0.30
2022-11-21T00:23:56.900Z,0.30
2022-11-21T00:26:25.224Z,0.30
2022-11-21T00:28:53.704Z,0.30
2022-11-21T00:31:22.586Z,0.40
2022-11-21T00:33:53.709Z,0.40
2022-11-21T00:36:21.888Z,0.40
2022-11-21T00:38:50.322Z,0.40
2022-11-21T00:41:18.665Z,0.50
2022-11-21T00:43:47.607Z,0.50
2022-11-21T00:46:16.577Z,0.50
2022-11-21T00:48:44.730Z,0.60
2022-11-21T00:51:14.718Z,0.60
2022-11-21T00:53:43.809Z,0.60
2022-11-21T00:56:12.001Z,0.70
2022-11-21T00:58:40.442Z,0.70
2022-11-21T01:01:09.230Z,0.70
2022-11-21T01:03:38.221Z,0.70
2022-11-21T01:06:07.928Z,0.80
2022-11-21T01:08:38.849Z,0.80
2022-11-21T01:11:07.637Z,0.80
2022-11-21T01:13:36.137Z,0.90
2022-11-21T01:16:05.548Z,0.90
2022-11-21T01:18:33.789Z,1.00
2022-11-21T01:21:02.532Z,1.00
2022-11-21T01:23:31.040Z,1.00
2022-11-21T01:26:04.160Z,1.00
2022-11-21T01:28:32.967Z,1.00
2022-11-21T01:31:05.259Z,1.00
2022-11-21T01:33:33.960Z,1.00
2022-11-21T01:36:07.957Z,1.00
2022-11-21T01:38:37.340Z,1.10
2022-11-21T01:41:07.038Z,1.10
2022-11-21T01:43:35.487Z,1.10
2022-11-21T01:46:05.756Z,1.10
2022-11-21T01:48:36.554Z,1.10
2022-11-21T01:51:06.122Z,1.10
2022-11-21T01:53:34.756Z,1.10
2022-11-21T01:56:03.055Z,1.10
2022-11-21T01:58:34.277Z,1.10
2022-11-21T02:01:03.252Z,1.20
2022-11-21T02:03:33.158Z,1.20
2022-11-21T02:06:01.495Z,1.20
2022-11-21T02:08:30.288Z,1.20
2022-11-21T02:11:04.496Z,1.20
2022-11-21T02:13:34.149Z,1.20
2022-11-21T02:16:03.267Z,1.20
2022-11-21T02:18:31.708Z,1.30
2022-11-21T02:21:02.235Z,1.40
2022-11-21T02:23:35.648Z,1.30
2022-11-21T02:26:05.341Z,1.30
2022-11-21T02:28:33.850Z,1.30
2022-11-21T02:31:02.021Z,1.30
2022-11-21T02:33:30.933Z,1.30
2022-11-21T02:35:59.614Z,1.30
2022-11-21T02:38:29.401Z,1.30
2022-11-21T02:41:02.070Z,1.30
2022-11-21T02:43:34.356Z,1.30
2022-11-21T02:46:03.040Z,1.30
2022-11-21T02:48:31.256Z,1.40
2022-11-21T02:50:59.732Z,1.40
2022-11-21T02:53:27.887Z,1.40
2022-11-21T02:55:56.346Z,1.40
2022-11-21T02:58:25.091Z,1.40
2022-11-21T03:00:55.544Z,1.40
2022-11-21T03:03:24.074Z,1.40
2022-11-21T03:05:52.321Z,1.40
2022-11-21T03:08:20.611Z,1.40
2022-11-21T03:10:48.799Z,1.40
2022-11-21T03:13:17.197Z,1.50
2022-11-21T03:15:45.605Z,1.40
2022-11-21T03:18:15.163Z,1.40
2022-11-21T03:20:43.416Z,1.50
2022-11-21T03:23:11.823Z,1.50
2022-11-21T03:25:40.927Z,1.40
2022-11-21T03:28:09.102Z,1.30
2022-11-21T03:30:37.466Z,1.40
2022-11-21T03:33:06.362Z,1.40
2022-11-21T03:35:35.867Z,1.30
2022-11-21T03:38:04.240Z,1.30
2022-11-21T03:40:32.360Z,1.30
2022-11-21T03:43:04.721Z,1.30
2022-11-21T03:45:33.091Z,1.20
2022-11-21T03:48:01.479Z,1.10
2022-11-21T03:50:29.591Z,1.00
2022-11-21T03:53:00.099Z,1.20
2022-11-21T03:55:28.406Z,0.90
2022-11-21T03:57:56.637Z,1.00
2022-11-21T04:00:24.857Z,0.90
2022-11-21T04:02:53.067Z,0.90
2022-11-21T04:05:21.239Z,0.80
2022-11-21T04:07:50.103Z,0.80
2022-11-21T04:10:21.018Z,0.70
2022-11-21T04:12:49.157Z,0.60
2022-11-21T04:15:17.389Z,0.60
2022-11-21T04:17:46.291Z,0.50
2022-11-21T04:20:14.627Z,0.50
2022-11-21T04:22:43.786Z,0.40
2022-11-21T04:25:13.846Z,0.40
2022-11-21T04:27:46.266Z,0.40
2022-11-21T04:30:15.238Z,0.30
2022-11-21T04:32:44.337Z,0.30
2022-11-21T04:35:12.745Z,0.20
2022-11-21T04:37:41.172Z,0.20
2022-11-21T04:40:09.992Z,0.20
2022-11-21T04:42:38.169Z,0.20
2022-11-21T04:45:11.709Z,0.20
2022-11-21T04:47:40.868Z,0.20
2022-11-21T04:50:10.445Z,0.20
2022-11-21T04:52:38.651Z,0.20
2022-11-21T04:55:07.489Z,0.20
2022-11-21T04:57:36.131Z,0.20
2022-11-21T05:00:04.592Z,0.30
2022-11-21T05:02:35.648Z,0.30
2022-11-21T05:05:03.738Z,0.30
2022-11-21T05:07:32.054Z,0.30
2022-11-21T05:10:01.382Z,0.30
2022-11-21T05:12:47.031Z,0.30
2022-11-21T05:15:16.548Z,0.20
2022-11-21T05:17:48.372Z,0.20
2022-11-21T05:20:17.041Z,0.20
2022-11-21T05:22:50.052Z,0.30
2022-11-21T05:25:18.463Z,0.20
2022-11-21T05:27:46.693Z,0.30
2022-11-21T05:30:18.230Z,0.30
2022-11-21T05:32:47.736Z,0.30
2022-11-21T05:35:16.007Z,0.20
2022-11-21T05:37:47.349Z,0.30
2022-11-21T05:40:16.261Z,0.20
2022-11-21T05:43:02.264Z,0.30
2022-11-21T05:45:30.544Z,0.30
2022-11-21T05:48:00.352Z,0.30
2022-11-21T05:50:28.699Z,0.30
2022-11-21T05:52:57.218Z,0.30
2022-11-21T05:55:25.591Z,0.30
2022-11-21T05:57:54.581Z,0.30
2022-11-21T06:00:22.992Z,0.30
2022-11-21T06:03:09.038Z,0.50
2022-11-21T06:05:38.909Z,0.40
2022-11-21T06:08:07.430Z,0.40
2022-11-21T06:10:35.882Z,0.40
2022-11-21T06:13:22.150Z,0.50
2022-11-21T06:15:51.611Z,0.40
2022-11-21T06:18:20.173Z,0.30
2022-11-21T06:20:49.834Z,0.20
2022-11-21T06:23:19.098Z,0.10
2022-11-21T06:25:47.340Z,0.10
2022-11-21T06:28:15.575Z,0.10
2022-11-21T06:30:43.916Z,0.00
2022-11-21T06:33:12.372Z,0.10
2022-11-21T06:35:41.488Z,0.20
2022-11-21T06:38:13.636Z,0.10
2022-11-21T06:40:42.042Z,0.00
2022-11-21T06:43:10.622Z,0.00
2022-11-21T06:45:38.939Z,0.10
2022-11-21T06:48:07.764Z,0.10
2022-11-21T06:50:36.412Z,0.10
2022-11-21T06:53:04.673Z,0.10
2022-11-21T06:55:34.867Z,0.20
2022-11-21T06:58:03.378Z,0.20
2022-11-21T07:00:32.613Z,0.10
2022-11-21T07:03:03.436Z,0.10
2022-11-21T07:05:32.948Z,0.10
2022-11-21T07:08:01.993Z,0.20
2022-11-21T07:10:30.897Z,0.10
2022-11-21T07:13:17.763Z,0.10
2022-11-21T07:15:46.431Z,0.20
2022-11-21T07:18:14.918Z,0.20
2022-11-21T07:20:43.194Z,0.30
2022-11-21T07:23:11.878Z,0.30
2022-11-21T07:25:40.928Z,0.30
2022-11-21T07:28:10.948Z,0.30
2022-11-21T07:30:39.217Z,0.30
2022-11-21T07:33:08.958Z,0.30
2022-11-21T07:35:37.421Z,0.30
2022-11-21T07:38:06.329Z,0.30
2022-11-21T07:40:34.967Z,0.40
2022-11-21T07:43:08.028Z,0.30
2022-11-21T07:45:41.097Z,0.50
2022-11-21T07:48:09.396Z,0.40
2022-11-21T07:50:37.643Z,0.40
2022-11-21T07:53:10.285Z,0.40
2022-11-21T07:55:42.157Z,0.30
2022-11-21T07:58:11.315Z,0.30
2022-11-21T08:00:43.408Z,0.30
2022-11-21T08:03:13.218Z,0.30
2022-11-21T08:05:42.255Z,0.20
2022-11-21T08:08:10.758Z,0.30
2022-11-21T08:10:39.362Z,0.30
2022-11-21T08:13:07.738Z,0.30
2022-11-21T08:15:36.979Z,0.40
2022-11-21T08:18:10.251Z,0.40
2022-11-21T08:20:39.688Z,0.40
2022-11-21T08:23:08.188Z,0.30
2022-11-21T08:25:38.185Z,0.30
2022-11-21T08:28:06.643Z,0.30
2022-11-21T08:30:35.429Z,0.20
2022-11-21T08:33:04.139Z,0.20
2022-11-21T08:35:33.858Z,0.40
2022-11-21T08:38:02.968Z,0.40
2022-11-21T08:40:32.619Z,0.50
2022-11-21T08:43:01.915Z,0.40
2022-11-21T08:45:30.764Z,0.50
2022-11-21T08:47:58.976Z,0.50
2022-11-21T08:50:28.180Z,0.60
2022-11-21T08:53:02.587Z,0.60
2022-11-21T08:55:31.041Z,0.60
2022-11-21T08:57:59.568Z,0.60
2022-11-21T09:00:28.169Z,0.60
2022-11-21T09:02:56.570Z,0.60
2022-11-21T09:05:24.942Z,0.60
2022-11-21T09:07:57.204Z,0.60
2022-11-21T09:10:26.909Z,0.70
2022-11-21T09:12:55.074Z,0.70
2022-11-21T09:15:40.632Z,0.70
2022-11-21T09:18:11.971Z,0.70
2022-11-21T09:20:41.177Z,0.60
2022-11-21T09:23:10.591Z,0.70
2022-11-21T09:25:40.511Z,0.80
2022-11-21T09:28:09.688Z,0.90
2022-11-21T09:30:38.278Z,1.00
2022-11-21T09:33:08.222Z,1.10
2022-11-21T09:35:36.719Z,1.20
2022-11-21T09:38:04.917Z,1.20
2022-11-21T09:40:34.659Z,1.20
2022-11-21T09:43:18.010Z,1.20
2022-11-21T09:45:48.004Z,1.30
2022-11-21T09:48:19.314Z,1.20
2022-11-21T09:50:53.580Z,1.20
2022-11-21T09:56:52.803Z,1.30
2022-11-21T09:59:31.601Z,1.30
2022-11-21T10:01:59.799Z,1.20
2022-11-21T10:04:28.925Z,1.20
2022-11-21T10:07:03.035Z,1.30
2022-11-21T10:09:40.504Z,1.30
2022-11-21T10:12:33.025Z,1.20
2022-11-21T10:15:04.726Z,1.10
2022-11-21T10:17:42.044Z,1.00
2022-11-21T10:20:19.439Z,1.00
2022-11-21T10:22:54.808Z,1.10
2022-11-21T10:25:27.132Z,1.10
2022-11-21T10:27:58.686Z,1.20
2022-11-21T10:30:30.113Z,1.30
2022-11-21T10:32:59.702Z,1.50
2022-11-21T10:35:32.389Z,1.50
2022-11-21T10:38:03.403Z,1.50
2022-11-21T10:40:35.760Z,1.50
2022-11-21T10:43:27.045Z,1.40
2022-11-21T10:46:14.840Z,1.40
2022-11-21T10:48:50.723Z,1.50
2022-11-21T10:51:27.242Z,1.60
2022-11-21T10:54:23.811Z,1.50
2022-11-21T10:56:56.973Z,1.70
2022-11-21T10:59:30.316Z,1.70
2022-11-21T11:02:02.522Z,1.80
2022-11-21T11:04:43.996Z,1.80
2022-11-21T11:07:26.120Z,1.90
2022-11-21T11:09:55.148Z,1.90
2022-11-21T11:12:25.170Z,2.00
2022-11-21T11:14:54.557Z,2.00
2022-11-21T11:17:31.881Z,2.00
2022-11-21T11:20:05.176Z,1.80
2022-11-21T11:22:33.774Z,1.80
2022-11-21T11:25:05.239Z,1.80
2022-11-21T11:27:33.939Z,1.80
2022-11-21T11:30:08.261Z,1.80
2022-11-21T11:32:45.262Z,1.70
2022-11-21T11:35:22.941Z,1.80
2022-11-21T11:37:57.517Z,1.90
2022-11-21T11:40:30.383Z,1.90
2022-11-21T11:43:21.176Z,1.90
2022-11-21T11:46:10.814Z,1.90
2022-11-21T11:49:17.331Z,1.90
2022-11-21T11:51:30.755Z,1.90
2022-11-21T11:54:01.361Z,1.90
2022-11-21T11:56:31.917Z,1.90
2022-11-21T11:59:03.566Z,2.10
2022-11-21T12:01:35.532Z,2.00
2022-11-21T12:04:07.761Z,2.00
2022-11-21T12:07:26.159Z,2.00
2022-11-21T12:09:30.354Z,2.00
2022-11-21T12:12:10.082Z,2.10
2022-11-21T12:15:09.222Z,2.20
2022-11-21T12:17:42.046Z,2.00
2022-11-21T12:20:23.178Z,2.10
2022-11-21T12:22:54.013Z,2.20
2022-11-21T12:25:25.998Z,2.20
2022-11-21T12:27:56.812Z,2.20
2022-11-21T12:30:42.516Z,2.30
2022-11-21T12:33:18.230Z,2.20
2022-11-21T12:36:17.502Z,2.20
2022-11-21T12:39:01.900Z,2.10
2022-11-21T12:41:51.387Z,2.10
2022-11-21T12:44:25.588Z,2.10
2022-11-21T12:47:00.139Z,2.10
2022-11-21T12:49:54.524Z,2.10
2022-11-21T12:52:47.389Z,2.10
2022-11-21T12:55:38.656Z,2.00
2022-11-21T12:58:17.484Z,2.00
2022-11-21T13:00:54.423Z,2.00
2022-11-21T13:03:43.444Z,1.90
2022-11-21T13:06:18.923Z,1.90
2022-11-21T13:08:48.957Z,1.90
2022-11-21T13:11:40.038Z,1.90
2022-11-21T13:14:14.149Z,1.90
2022-11-21T13:16:48.466Z,1.90
2022-11-21T13:19:22.613Z,1.90
2022-11-21T13:21:51.586Z,2.00
2022-11-21T13:24:38.625Z,2.00
2022-11-21T13:27:09.631Z,2.10
2022-11-21T13:29:40.292Z,2.20
2022-11-21T13:32:23.726Z,2.20
2022-11-21T13:34:52.196Z,2.10
2022-11-21T13:37:35.295Z,2.10
2022-11-21T13:40:18.567Z,2.10
2022-11-21T13:43:30.821Z,2.10
2022-11-21T13:45:56.978Z,2.10
2022-11-21T13:48:36.805Z,2.00
2022-11-21T13:51:17.985Z,2.00
2022-11-21T13:54:02.763Z,1.80
2022-11-21T13:56:36.867Z,1.80
2022-11-21T13:59:23.922Z,1.80
2022-11-21T14:02:10.485Z,1.80
2022-11-21T14:04:53.756Z,1.70
2022-11-21T14:07:26.016Z,1.80
2022-11-21T14:09:55.652Z,1.80
2022-11-21T14:12:31.553Z,1.90
2022-11-21T14:15:25.415Z,1.90
2022-11-21T14:17:55.910Z,1.80
2022-11-21T14:20:27.611Z,1.80
2022-11-21T14:22:58.152Z,1.80
2022-11-21T14:25:29.206Z,1.70
2022-11-21T14:27:58.248Z,1.80
2022-11-21T14:30:34.119Z,1.60
2022-11-21T14:33:21.405Z,1.60
2022-11-21T14:35:52.677Z,1.60
2022-11-21T14:38:21.685Z,1.60
2022-11-21T14:40:50.237Z,1.70
2022-11-21T14:43:31.427Z,1.70
2022-11-21T14:45:59.981Z,1.80
2022-11-21T14:48:29.376Z,1.70
2022-11-21T14:51:01.868Z,1.70
2022-11-21T14:53:30.276Z,1.70
2022-11-21T14:56:01.704Z,1.80
2022-11-21T14:58:30.387Z,1.70
2022-11-21T15:01:08.716Z,1.70
2022-11-21T15:03:38.327Z,1.70
2022-11-21T15:06:12.367Z,1.70
2022-11-21T15:09:14.766Z,1.60
2022-11-21T15:11:33.536Z,1.70
2022-11-21T15:14:15.537Z,1.60
2022-11-21T15:16:45.405Z,1.50
2022-11-21T15:19:20.707Z,1.50
2022-11-21T15:21:50.651Z,1.40
2022-11-21T15:24:19.995Z,1.40
2022-11-21T15:26:48.307Z,1.50
2022-11-21T15:29:21.176Z,1.60
2022-11-21T15:32:04.545Z,1.50
2022-11-21T15:34:35.765Z,1.50
2022-11-21T15:37:18.656Z,1.50
2022-11-21T15:39:48.479Z,1.30
2022-11-21T15:42:29.781Z,1.50
2022-11-21T15:45:00.707Z,1.50
2022-11-21T15:47:33.806Z,1.50
2022-11-21T15:50:02.531Z,1.50
2022-11-21T15:52:32.832Z,1.50
2022-11-21T15:55:01.305Z,1.60
2022-11-21T15:57:29.985Z,1.40
2022-11-21T15:59:58.334Z,1.40
2022-11-21T16:02:26.551Z,1.40
2022-11-21T16:04:55.081Z,1.40
2022-11-21T16:07:26.961Z,1.40
2022-11-21T16:10:04.655Z,1.30
2022-11-21T16:12:33.961Z,1.40
2022-11-21T16:15:02.928Z,1.40
2022-11-21T16:17:32.066Z,1.30
2022-11-21T16:20:03.196Z,1.30
2022-11-21T16:22:35.293Z,1.30
2022-11-21T16:25:05.465Z,1.40
2022-11-21T16:27:34.148Z,1.40
2022-11-21T16:30:02.774Z,1.30
2022-11-21T16:32:38.713Z,1.30
2022-11-21T16:35:07.751Z,1.20
2022-11-21T16:37:37.713Z,1.10
2022-11-21T16:40:08.273Z,1.10
2022-11-21T16:42:36.635Z,1.10
2022-11-21T16:45:05.567Z,1.00
2022-11-21T16:47:37.092Z,1.00
2022-11-21T16:50:06.218Z,1.00
2022-11-21T16:52:37.029Z,0.90
2022-11-21T16:55:05.714Z,0.90
2022-11-21T16:57:37.551Z,0.90
2022-11-21T17:00:06.547Z,0.90
2022-11-21T17:02:35.396Z,0.90
2022-11-21T17:05:07.404Z,0.90
2022-11-21T17:07:53.261Z,0.90
2022-11-21T17:10:22.337Z,0.90
2022-11-21T17:16:14.874Z,0.90
2022-11-21T17:18:43.587Z,0.90
2022-11-21T17:21:12.605Z,0.90
2022-11-21T17:23:41.481Z,0.90
2022-11-21T17:26:10.342Z,1.00
2022-11-21T17:28:42.431Z,1.00
2022-11-21T17:31:16.733Z,1.00
2022-11-21T17:33:50.314Z,1.00
2022-11-21T17:36:19.415Z,1.00
2022-11-21T17:38:51.019Z,1.00
2022-11-21T17:41:20.279Z,0.90
2022-11-21T17:43:49.099Z,1.00
2022-11-21T17:46:20.328Z,1.00
2022-11-21T17:48:54.917Z,1.00
2022-11-21T17:51:25.942Z,1.00
2022-11-21T17:53:55.827Z,1.00
2022-11-21T17:56:25.040Z,1.00
2022-11-21T17:58:54.440Z,1.00
2022-11-21T18:01:24.487Z,0.90
2022-11-21T18:03:55.940Z,0.90
2022-11-21T18:06:25.507Z,0.90
2022-11-21T18:08:54.140Z,0.80
2022-11-21T18:11:23.642Z,0.90
2022-11-21T18:13:58.472Z,0.80
2022-11-21T18:16:30.313Z,0.90
2022-11-21T18:18:59.037Z,0.80
2022-11-21T18:21:28.320Z,0.70
2022-11-21T18:23:57.509Z,0.70
2022-11-21T18:26:26.969Z,0.70
2022-11-21T18:29:13.454Z,0.60
2022-11-21T18:31:46.396Z,0.60
2022-11-21T18:34:14.588Z,0.50
2022-11-21T18:36:42.828Z,0.50
2022-11-21T18:39:15.035Z,0.50
2022-11-21T18:41:43.829Z,0.50
2022-11-21T18:44:20.170Z,0.50
2022-11-21T18:46:51.560Z,0.50
2022-11-21T18:49:19.818Z,0.40
2022-11-21T18:51:48.575Z,0.40
2022-11-21T18:54:17.117Z,0.40
2022-11-21T18:56:45.309Z,0.40
2022-11-21T18:59:13.438Z,0.40
2022-11-21T19:01:42.022Z,0.40
2022-11-21T19:04:11.828Z,0.40
2022-11-21T19:06:39.959Z,0.40
2022-11-21T19:09:08.549Z,0.40
2022-11-21T19:11:37.012Z,0.30
2022-11-21T19:14:05.159Z,0.30
2022-11-21T19:16:34.610Z,0.40
2022-11-21T19:19:33.012Z,0.40
2022-11-21T19:21:52.690Z,0.40
2022-11-21T19:24:20.881Z,0.40
2022-11-21T19:26:50.640Z,0.40
2022-11-21T19:29:19.396Z,0.40
2022-11-21T19:31:48.075Z,0.40
2022-11-21T19:34:16.385Z,0.40
2022-11-21T19:36:44.855Z,0.40
2022-11-21T19:39:14.738Z,0.40
2022-11-21T19:41:43.389Z,0.40
2022-11-21T19:44:12.719Z,0.60
2022-11-21T19:46:43.000Z,0.40
2022-11-21T19:49:12.331Z,0.40
2022-11-21T19:51:41.392Z,0.40
2022-11-21T19:54:11.217Z,0.40
2022-11-21T19:56:40.846Z,0.40
2022-11-21T19:59:11.694Z,0.40
2022-11-21T20:01:43.396Z,0.40
2022-11-21T20:04:14.038Z,0.50
2022-11-21T20:06:44.421Z,0.40
2022-11-21T20:09:13.770Z,0.50
2022-11-21T20:11:50.280Z,0.50
2022-11-21T20:14:22.233Z,0.40
2022-11-21T20:16:59.015Z,0.40
2022-11-21T20:19:28.478Z,0.40
2022-11-21T20:21:57.742Z,0.40
2022-11-21T20:24:26.179Z,0.30
2022-11-21T20:26:56.309Z,0.30
2022-11-21T20:29:25.997Z,0.30
2022-11-21T20:31:55.450Z,0.30
2022-11-21T20:34:23.927Z,0.30
2022-11-21T20:36:52.553Z,0.20
2022-11-21T20:39:22.529Z,0.20
2022-11-21T20:41:50.944Z,0.20
2022-11-21T20:47:13.462Z,0.10
2022-11-21T20:49:42.238Z,0.10
2022-11-21T20:55:01.727Z,0.10
2022-11-21T20:57:31.257Z,0.20
2022-11-21T21:00:01.803Z,0.10
2022-11-21T21:02:32.386Z,0.00
2022-11-21T21:05:01.167Z,0.00
2022-11-21T21:07:29.809Z,0.00
2022-11-21T21:09:59.623Z,0.00
2022-11-21T21:12:28.411Z,0.00
2022-11-21T21:14:57.055Z,0.00
2022-11-21T21:17:27.165Z,0.00
2022-11-21T21:19:55.544Z,0.00
2022-11-21T21:22:29.968Z,0.00
2022-11-21T21:24:59.139Z,0.00
2022-11-21T21:27:27.286Z,0.00
2022-11-21T21:29:55.815Z,0.00
2022-11-21T21:32:26.408Z,0.00
2022-11-21T21:34:54.736Z,0.00
2022-11-21T21:37:23.282Z,0.00
2022-11-21T21:39:51.799Z,-0.10
2022-11-21T21:42:20.389Z,-0.10
2022-11-21T21:44:49.358Z,-0.10
2022-11-21T21:47:17.804Z,0.00
2022-11-21T21:49:47.553Z,-0.10
2022-11-21T21:52:15.685Z,0.00
2022-11-21T21:54:44.098Z,-0.10
2022-11-21T21:57:12.258Z,-0.10
2022-11-21T21:59:40.466Z,-0.10
2022-11-21T22:02:08.827Z,-0.10
2022-11-21T22:04:37.147Z,-0.10
2022-11-21T22:07:08.848Z,-0.10
2022-11-21T22:09:37.239Z,-0.10
2022-11-21T22:12:05.724Z,-0.10
2022-11-21T22:14:35.085Z,-0.10
2022-11-21T22:17:03.426Z,-0.20
2022-11-21T22:19:32.917Z,-0.20
2022-11-21T22:22:01.217Z,-0.20
2022-11-21T22:24:30.950Z,-0.20
2022-11-21T22:26:59.187Z,-0.20
2022-11-21T22:29:27.478Z,-0.20
2022-11-21T22:31:56.022Z,-0.20
2022-11-21T22:34:24.439Z,-0.20
2022-11-21T22:36:52.647Z,-0.10
2022-11-21T22:39:21.589Z,0.10
2022-11-21T22:41:56.965Z,-0.10
2022-11-21T22:44:29.112Z,-0.10
2022-11-21T22:46:57.548Z,0.00
2022-11-21T22:49:26.196Z,0.00
2022-11-21T22:51:55.610Z,0.00
2022-11-21T22:54:23.809Z,0.10
2022-11-21T22:56:53.388Z,0.10
2022-11-21T22:59:21.737Z,0.10
2022-11-21T23:01:50.092Z,0.10
2022-11-21T23:04:19.302Z,0.10
2022-11-21T23:06:47.445Z,0.10
2022-11-21T23:09:16.562Z,0.20
2022-11-21T23:11:44.787Z,0.20
2022-11-21T23:14:14.551Z,0.20
2022-11-21T23:16:42.744Z,0.20
2022-11-21T23:19:11.109Z,0.30
2022-11-21T23:21:39.457Z,0.30
2022-11-21T23:24:07.888Z,0.30
2022-11-21T23:26:36.528Z,0.30
2022-11-21T23:29:08.919Z,0.30
2022-11-21T23:31:38.876Z,0.30
2022-11-21T23:34:07.047Z,0.30
2022-11-21T23:36:35.382Z,0.40
2022-11-21T23:39:03.535Z,0.40
2022-11-21T23:41:31.724Z,0.40
2022-11-21T23:44:00.522Z,0.40
2022-11-21T23:46:29.077Z,0.30
2022-11-21T23:48:58.877Z,0.40
2022-11-21T23:51:27.158Z,0.40
2022-11-21T23:53:55.357Z,0.30
2022-11-21T23:56:23.558Z,0.30
2022-11-21T23:58:52.696Z,0.30
